Latest Weather Observations for Fortescue Dave Forrest

IDW60801

Issued at 9:03 pm WST Monday 18 June 2018 (issued every 10 minutes, with the page automatically refreshed every 10 minutes)

About weather observations | Map of weather stations | Latest weather observations for WA | Other Formats
Station Details ID: 505056 Name: FORTESCUE DAVE FORREST Lat: -22.29 Lon: 119.43 Height: 474.6 m
Data from the previous 72 hours. | See also: Recent months for locations in Western Australia
Date/Time
WST
Temp
°C
App
Temp
°C
Dew
Point
°C
Rel
Hum
%
Delta-T
°C
Wind Press
QNH
hPa
Press
MSL
hPa
Rain since
9am
mm
Dir  Spd
km/h
Gust
km/h
Spd
kts
Gust
kts
18/09:00pm 18.2 17.4 8.2 52 5.2 ENE 2 4 1 2 1020.4 1019.5 0.0
18/08:30pm 18.8 18.4 8.2 50 5.6 CALM 0 2 0 1 1020.4 1019.5 0.0
18/08:00pm 18.8 18.4 9.6 55 5.0 S 2 2 1 1 1020.0 1019.2 0.0
18/07:30pm 19.0 18.3 8.4 50 5.6 W 2 2 1 1 1019.7 1018.9 0.0
18/07:00pm 20.0 18.9 7.1 43 6.7 SE 2 4 1 2 1019.4 1018.6 0.0
18/06:30pm 21.1 18.2 4.6 34 8.2 SSE 9 9 5 5 1019.2 1018.4 0.0
18/06:00pm 21.5 18.5 4.1 32 8.6 S 9 11 5 6 1019.1 1018.3 0.0
18/05:30pm 22.3 19.8 3.9 30 9.1 SSE 6 6 3 3 1018.8 1018.0 0.0
18/05:00pm 24.1 21.9 3.4 26 10.3 SSE 4 6 2 3 1018.5 1017.6 0.0
18/04:30pm 24.4 21.8 3.1 25 10.6 ESE 6 11 3 6 1018.1 1017.2 0.0
18/04:00pm 24.7 22.0 2.8 24 10.8 ESE 6 11 3 6 1018.1 1017.2 0.0
18/03:30pm 24.9 22.5 2.4 23 11.1 N 4 11 2 6 1018.1 1017.2 0.0
18/03:00pm 24.4 21.6 1.9 23 10.9 ESE 6 11 3 6 1018.2 1017.3 0.0
18/02:30pm 24.6 21.7 2.7 24 10.8 NE 7 19 4 10 1018.0 1017.1 0.0
18/02:00pm 24.1 21.6 1.7 23 10.8 NNW 4 13 2 7 1018.2 1017.3 0.0
18/01:30pm 23.8 20.3 1.4 23 10.7 ENE 9 17 5 9 1018.4 1017.5 0.0
18/01:00pm 23.4 20.4 1.1 23 10.6 NE 6 17 3 9 1018.9 1018.1 0.0
18/12:30pm 22.8 19.7 1.2 24 10.2 ENE 7 11 4 6 1019.5 1018.7 0.0
18/12:00pm 22.5 18.6 0.9 24 10.1 NE 11 19 6 10 1020.2 1019.3 0.0
18/11:30am 21.8 18.2 0.9 25 9.8 ENE 9 15 5 8 1020.5 1019.6 0.0
18/11:00am 21.2 16.1 1.0 26 9.4 NE 17 22 9 12 1021.1 1020.3 0.0
18/10:30am 20.6 15.2 1.0 27 9.1 NE 19 28 10 15 1021.5 1020.7 0.0
18/10:00am 19.8 13.8 0.8 28 8.7 NE 22 30 12 16 1021.7 1020.9 0.0
18/09:30am 19.2 13.2 1.2 30 8.3 NE 22 32 12 17 1022.0 1021.2 0.0
18/09:00am 18.4 13.0 1.0 31 7.9 ENE 19 26 10 14 1022.1 1021.3 0.0
18/08:30am 15.6 13.2 4.3 47 5.4 E 6 7 3 4 1022.0 1021.2 0.0
18/08:00am 13.8 12.3 4.9 55 4.2 SSW 2 4 1 2 1022.0 1021.2 0.0
18/07:30am 11.1 9.9 6.5 73 2.2 S 2 6 1 3 1021.8 1021.0 0.0
18/07:00am 11.1 8.9 5.2 67 2.8 E 6 6 3 3 1021.5 1020.7 0.0
18/06:30am 9.6 7.5 5.8 77 1.8 NNE 6 7 3 4 1021.1 1020.3 0.0
18/06:00am 9.3 7.9 5.7 78 1.7 SW 2 4 1 2 1021.2 1020.4 0.0
18/05:30am 10.1 8.0 5.7 74 2.1 E 6 6 3 3 1021.1 1020.3 0.0
18/05:00am 10.9 9.0 5.0 67 2.7 S 4 6 2 3 1021.0 1020.2 0.0
18/04:30am 11.2 9.0 5.1 66 2.9 SSW 6 7 3 4 1020.9 1020.1 0.0
18/04:00am 11.3 9.4 5.0 65 2.9 ESE 4 6 2 3 1020.6 1019.7 0.0
18/03:30am 11.9 9.9 4.4 60 3.5 E 4 6 2 3 1020.3 1019.4 0.0
18/03:00am 13.0 10.6 4.4 56 4.0 NE 6 7 3 4 1019.9 1019.1 0.0
18/02:30am 13.0 10.9 3.9 54 4.2 S 4 4 2 2 1020.7 1019.9 0.0
18/02:00am 13.6 11.3 2.8 48 4.9 SSW 4 7 2 4 1020.9 1020.1 0.0
18/01:30am 14.7 11.6 3.5 47 5.2 E 9 13 5 7 1020.9 1020.1 0.0
18/01:00am 14.6 11.6 4.3 50 4.9 ESE 9 11 5 6 1020.9 1020.1 0.0
18/12:30am 15.1 12.2 4.5 49 5.1 E 9 9 5 5 1020.9 1020.1 0.0
18/12:00am 16.2 13.1 3.6 43 5.9 ENE 9 11 5 6 1020.9 1020.1 0.0
 
Date/Time
WST
Temp
°C
App
Temp
°C
Dew
Point
°C
Rel
Hum
%
Delta-T
°C
Wind Press
QNH
hPa
Press
MSL
hPa
Rain since
9am
mm
Dir  Spd
km/h
Gust
km/h
Spd
kts
Gust
kts
17/11:30pm 15.5 13.3 3.6 45 5.6 ENE 4 7 2 4 1021.1 1020.3 0.0
17/11:00pm 14.4 12.7 5.7 56 4.2 ENE 4 7 2 4 1021.4 1020.6 0.0
17/10:30pm 17.0 14.4 4.0 42 6.2 ENE 7 7 4 4 1021.3 1020.5 0.0
17/10:00pm 15.9 13.9 4.6 47 5.4 NE 4 6 2 3 1021.4 1020.6 0.0
17/09:30pm 18.8 16.0 3.0 35 7.5 NE 7 9 4 5 1021.3 1020.5 0.0
17/09:00pm 19.1 16.3 3.3 35 7.6 ENE 7 9 4 5 1021.3 1020.5 0.0
17/08:30pm 19.3 16.3 3.9 36 7.5 ENE 9 13 5 7 1021.2 1020.4 0.0
17/08:00pm 18.9 15.9 4.3 38 7.1 ENE 9 13 5 7 1021.1 1020.3 0.0
17/07:30pm 18.7 16.5 5.2 41 6.7 E 6 7 3 4 1021.3 1020.5 0.0
17/07:00pm 19.8 17.0 5.1 38 7.3 ENE 9 11 5 6 1021.0 1020.2 0.0
17/06:30pm 20.3 17.9 5.1 37 7.6 ENE 7 9 4 5 1021.0 1020.2 0.0
17/06:00pm 21.3 18.5 5.2 35 8.1 ENE 9 11 5 6 1020.9 1020.1 0.0
17/05:30pm 22.9 20.0 4.4 30 9.3 E 9 11 5 6 1020.7 1019.9 0.0
17/05:00pm 24.7 20.7 2.8 24 10.8 E 13 17 7 9 1020.5 1019.6 0.0
17/04:30pm 25.5 21.8 2.2 22 11.5 E 11 15 6 8 1020.5 1019.6 0.0
17/04:00pm 25.9 22.2 2.6 22 11.6 E 11 19 6 10 1020.4 1019.5 0.0
17/03:30pm 25.6 21.4 1.7 21 11.7 ENE 13 19 7 10 1020.3 1019.4 0.0
17/03:00pm 25.9 20.9 1.2 20 11.9 ENE 17 22 9 12 1020.2 1019.3 0.0
17/02:30pm 25.9 21.2 1.2 20 12.0 ENE 15 24 8 13 1020.2 1019.3 0.0
17/02:00pm 25.4 20.8 1.5 21 11.6 E 15 24 8 13 1020.3 1019.4 0.0
17/01:30pm 25.3 20.5 0.0 19 12.0 ENE 15 26 8 14 1020.6 1019.7 0.0
17/01:00pm 25.0 19.7 -0.9 18 12.0 E 17 24 9 13 1020.9 1020.1 0.0
17/12:30pm 24.7 18.9 -1.2 18 11.9 ENE 19 30 10 16 1021.5 1020.7 0.0
17/12:00pm 24.3 17.9 -1.5 18 11.7 ENE 22 30 12 16 1022.0 1021.2 0.0
17/11:30am 24.0 18.0 -1.8 18 11.7 ENE 20 26 11 14 1022.5 1021.7 0.0
17/11:00am 23.4 17.3 -2.2 18 11.4 NE 20 30 11 16 1022.7 1021.9 0.0
17/10:30am 22.7 15.9 -2.1 19 11.0 NE 24 33 13 18 1022.9 1022.1 0.0
17/10:00am 22.1 14.9 -1.9 20 10.6 ENE 26 33 14 18 1023.2 1022.4 0.0
17/09:30am 21.1 15.1 -1.4 22 10.0 ENE 20 28 11 15 1023.4 1022.6 0.0
17/09:00am 16.9 14.2 3.6 41 6.3 ESE 7 22 4 12 1023.6 1022.8 0.0
17/08:30am 14.2 11.2 4.2 51 4.7 ESE 9 11 5 6 1023.7 1022.9 0.0
17/08:00am 12.5 9.6 4.5 58 3.7 ESE 9 11 5 6 1023.5 1022.7 0.0
17/07:30am 11.3 8.8 4.5 63 3.2 ESE 7 9 4 5 1023.5 1022.7 0.0
17/07:00am 9.9 6.9 4.1 67 2.6 SE 9 11 5 6 1023.2 1022.4 0.0
17/06:30am 9.7 7.2 3.9 67 2.6 SSE 6 7 3 4 1023.1 1022.3 0.0
17/06:00am 9.6 8.0 4.4 70 2.4 ESE 2 4 1 2 1022.6 1021.8 0.0
17/05:30am 9.7 7.3 4.1 68 2.5 SE 6 7 3 4 1022.4 1021.5 0.0
17/05:00am 10.0 7.6 4.2 67 2.6 SSE 6 7 3 4 1022.4 1021.5 0.0
17/04:30am 10.3 7.7 4.0 65 2.9 SE 7 9 4 5 1022.1 1021.3 0.0
17/04:00am 10.9 7.9 4.1 63 3.1 SE 9 9 5 5 1022.1 1021.3 0.0
17/03:30am 11.1 8.1 4.3 63 3.1 SE 9 13 5 7 1022.4 1021.5 0.0
17/03:00am 11.1 8.6 4.6 64 3.0 SE 7 11 4 6 1022.1 1021.3 0.0
17/02:30am 11.3 8.4 4.7 64 3.1 SE 9 11 5 6 1022.1 1021.3 0.0
17/02:00am 11.0 8.8 5.3 68 2.7 SE 6 7 3 4 1022.2 1021.4 0.0
17/01:30am 11.8 9.6 5.4 65 3.0 SE 6 7 3 4 1022.6 1021.8 0.0
17/01:00am 11.4 9.3 5.7 68 2.7 SSE 6 7 3 4 1022.7 1021.9 0.0
17/12:30am 12.1 10.6 6.8 70 2.6 S 4 7 2 4 1022.7 1021.9 0.0
17/12:00am 13.3 11.1 6.4 63 3.4 S 7 11 4 6 1022.7 1021.9 0.0
 
Date/Time
WST
Temp
°C
App
Temp
°C
Dew
Point
°C
Rel
Hum
%
Delta-T
°C
Wind Press
QNH
hPa
Press
MSL
hPa
Rain since
9am
mm
Dir  Spd
km/h
Gust
km/h
Spd
kts
Gust
kts
16/11:30pm 14.6 12.4 5.1 53 4.6 ESE 6 7 3 4 1022.8 1022.0 0.0
16/11:00pm 17.3 14.3 4.3 42 6.3 E 9 13 5 7 1022.9 1022.1 0.0
16/10:30pm 14.0 12.2 7.1 63 3.5 E 6 9 3 5 1023.0 1022.2 0.0
16/10:00pm 13.7 12.8 7.9 68 2.9 ENE 2 6 1 3 1023.1 1022.3 0.0
16/09:30pm 14.3 13.3 8.7 69 2.9 E 4 6 2 3 1022.9 1022.1 0.0
16/09:00pm 15.3 14.5 8.1 62 3.7 NE 2 4 1 2 1023.0 1022.2 0.0
16/08:30pm 16.4 15.3 8.4 59 4.2 ESE 4 6 2 3 1023.1 1022.3 0.0
16/08:00pm 18.5 16.1 5.4 42 6.5 SE 7 7 4 4 1023.2 1022.4 0.0
16/07:30pm 16.8 15.9 7.7 55 4.7 SSE 2 6 1 3 1022.7 1021.9 0.0
16/07:00pm 18.1 16.6 6.6 47 5.8 ENE 4 6 2 3 1022.2 1021.4 0.0
16/06:30pm 19.7 18.1 6.4 42 6.8 ENE 4 6 2 3 1022.0 1021.2 0.0
16/06:00pm 20.6 18.5 6.5 40 7.3 E 7 9 4 5 1021.6 1020.8 0.0
16/05:30pm 22.8 19.8 6.1 34 8.7 E 11 13 6 7 1021.4 1020.6 0.0
16/05:00pm 24.6 21.9 5.4 29 9.9 E 9 13 5 7 1021.0 1020.2 0.0
16/04:30pm 25.3 22.0 4.4 26 10.7 E 11 17 6 9 1020.9 1020.1 0.0
16/04:00pm 25.5 21.6 3.5 24 11.1 E 13 19 7 10 1020.7 1019.9 0.0
16/03:30pm 25.4 21.5 3.4 24 11.1 E 13 22 7 12 1020.6 1019.7 0.0
16/03:00pm 25.4 21.0 2.8 23 11.2 E 15 22 8 12 1020.6 1019.7 0.0
16/02:30pm 25.2 20.4 2.6 23 11.2 E 17 26 9 14 1020.8 1020.0 0.0
16/02:00pm 24.9 19.7 2.4 23 11.0 E 19 24 10 13 1020.9 1020.1 0.0
16/01:30pm 24.6 19.1 2.1 23 11.0 ENE 20 28 11 15 1021.3 1020.5 0.0
16/01:00pm 24.4 18.9 1.9 23 10.9 E 20 37 11 20 1021.6 1020.8 0.0
16/12:30pm 23.7 18.9 2.5 25 10.4 E 17 26 9 14 1022.2 1021.4 0.0
16/12:00pm 23.1 17.5 0.9 23 10.5 E 20 28 11 15 1022.9 1022.1 0.0
16/11:30am 22.0 15.6 1.1 25 9.8 E 24 30 13 16 1023.3 1022.5 0.0
16/11:00am 21.5 15.1 0.7 25 9.6 E 24 33 13 18 1023.6 1022.8 0.0
16/10:30am 20.6 15.0 1.5 28 9.0 E 20 32 11 17 1023.9 1023.1 0.0
16/10:00am 16.6 13.1 3.3 41 6.2 SE 11 17 6 9 1024.2 1023.5 0.0
16/09:30am 14.8 10.0 2.7 44 5.6 ESE 17 22 9 12 1024.4 1023.7 0.0
16/09:00am 12.9 9.2 2.5 49 4.7 ESE 11 17 6 9 1024.4 1023.7 -
16/08:30am 11.1 6.9 1.9 53 4.0 ESE 13 19 7 10 1024.2 1023.5 -
16/08:00am 9.8 5.2 1.7 57 3.5 SE 15 19 8 10 1024.1 1023.3 -
16/07:30am 8.9 5.1 1.6 60 3.1 SE 11 17 6 9 1024.0 1023.2 -
16/07:00am 7.8 4.8 1.9 66 2.5 SE 7 11 4 6 1023.7 1022.9 -
16/06:30am 7.8 4.4 1.6 65 2.6 SE 9 15 5 8 1023.5 1022.7 -
16/06:00am 7.9 4.4 1.5 64 2.7 SSE 9 15 5 8 1023.3 1022.5 -
16/05:30am 8.1 5.1 1.7 64 2.7 SSE 7 13 4 7 1023.0 1022.2 -
16/05:00am 8.6 5.6 1.7 62 2.9 SSE 7 17 4 9 1023.0 1022.2 -
16/04:30am 9.4 5.2 1.6 58 3.3 SE 13 22 7 12 1023.0 1022.2 -
16/04:00am 9.2 5.5 2.1 61 3.0 SE 11 19 6 10 1023.1 1022.3 -
16/03:30am 9.8 6.0 1.9 58 3.4 SE 11 20 6 11 1023.0 1022.2 -
16/03:00am 10.1 6.0 2.0 57 3.5 SE 13 20 7 11 1023.0 1022.2 0.0
16/02:30am 10.3 6.9 1.9 56 3.6 SE 9 17 5 9 1022.8 1022.0 -
16/02:00am 10.3 6.6 2.4 58 3.4 SSE 11 17 6 9 1023.0 1022.2 -
16/01:30am 10.6 6.9 2.4 57 3.6 SSE 11 19 6 10 1023.2 1022.4 -
16/01:00am 10.8 8.1 2.4 56 3.7 SE 6 11 3 6 1023.3 1022.5 -
16/12:30am 12.2 8.1 2.1 50 4.5 SSE 13 17 7 9 1023.3 1022.5 -
16/12:00am 13.3 10.3 1.9 46 5.1 ESE 7 11 4 6 1023.6 1022.8 -
 
Date/Time
WST
Temp
°C
App
Temp
°C
Dew
Point
°C
Rel
Hum
%
Delta-T
°C
Wind Press
QNH
hPa
Press
MSL
hPa
Rain since
9am
mm
Dir  Spd
km/h
Gust
km/h
Spd
kts
Gust
kts
15/11:30pm 13.7 9.9 2.0 45 5.2 ESE 11 15 6 8 1023.5 1022.7 -
15/11:00pm 13.9 10.5 1.9 44 5.3 ESE 9 15 5 8 1023.8 1023.0 -
15/10:30pm 15.0 9.7 1.9 41 5.9 ESE 19 28 10 15 1023.7 1022.9 -
15/10:00pm 14.5 10.4 2.4 44 5.5 ESE 13 22 7 12 1023.6 1022.8 -
15/09:30pm 14.4 10.0 2.6 45 5.4 ESE 15 19 8 10 1023.6 1022.8 -

Other Formats:

Comma delimited format used in spreadsheet applications
http://www.bom.gov.au/fwo/IDW60801/IDW60801.99736.axf

JavaScript Object Notation format (JSON) in row-major order
http://www.bom.gov.au/fwo/IDW60801/IDW60801.99736.json